sensor_id;sensor_type;location;lat;lon;timestamp;temperature;humidity
41876;DHT22;27555;50.808;4.402;2023-08-07T00:00:39;13.90;99.90
41876;DHT22;27555;50.808;4.402;2023-08-07T00:03:04;13.80;99.90
41876;DHT22;27555;50.808;4.402;2023-08-07T00:05:30;13.80;99.90
41876;DHT22;27555;50.808;4.402;2023-08-07T00:07:56;13.90;99.90
41876;DHT22;27555;50.808;4.402;2023-08-07T00:10:22;13.80;99.90
41876;DHT22;27555;50.808;4.402;2023-08-07T00:12:48;13.80;99.90
41876;DHT22;27555;50.808;4.402;2023-08-07T00:15:13;13.80;99.90
41876;DHT22;27555;50.808;4.402;2023-08-07T00:17:39;13.80;99.90
41876;DHT22;27555;50.808;4.402;2023-08-07T00:20:05;13.90;99.90
41876;DHT22;27555;50.808;4.402;2023-08-07T00:22:31;13.90;99.90
41876;DHT22;27555;50.808;4.402;2023-08-07T00:24:57;14.00;99.90
41876;DHT22;27555;50.808;4.402;2023-08-07T00:27:23;14.00;99.90
41876;DHT22;27555;50.808;4.402;2023-08-07T00:29:48;14.10;99.90
41876;DHT22;27555;50.808;4.402;2023-08-07T00:32:14;13.90;99.90
41876;DHT22;27555;50.808;4.402;2023-08-07T00:34:39;14.00;99.90
41876;DHT22;27555;50.808;4.402;2023-08-07T00:37:05;14.00;99.90
41876;DHT22;27555;50.808;4.402;2023-08-07T00:39:31;14.00;99.90
41876;DHT22;27555;50.808;4.402;2023-08-07T00:41:57;13.90;99.90
41876;DHT22;27555;50.808;4.402;2023-08-07T00:44:22;13.90;99.90
41876;DHT22;27555;50.808;4.402;2023-08-07T00:46:49;13.70;99.90
41876;DHT22;27555;50.808;4.402;2023-08-07T00:49:16;13.60;99.90
41876;DHT22;27555;50.808;4.402;2023-08-07T00:51:43;13.60;99.90
41876;DHT22;27555;50.808;4.402;2023-08-07T00:54:10;13.70;99.90
41876;DHT22;27555;50.808;4.402;2023-08-07T00:56:37;13.70;99.90
41876;DHT22;27555;50.808;4.402;2023-08-07T00:59:03;13.70;99.90
41876;DHT22;27555;50.808;4.402;2023-08-07T01:01:28;13.70;99.90
41876;DHT22;27555;50.808;4.402;2023-08-07T01:03:54;13.60;99.90
41876;DHT22;27555;50.808;4.402;2023-08-07T01:06:20;13.60;99.90
41876;DHT22;27555;50.808;4.402;2023-08-07T01:08:46;13.50;99.90
41876;DHT22;27555;50.808;4.402;2023-08-07T01:14:05;13.50;99.90
41876;DHT22;27555;50.808;4.402;2023-08-07T01:19:11;13.50;99.90
41876;DHT22;27555;50.808;4.402;2023-08-07T01:21:47;13.60;99.90
41876;DHT22;27555;50.808;4.402;2023-08-07T01:24:13;13.50;99.90
41876;DHT22;27555;50.808;4.402;2023-08-07T01:26:39;13.40;99.90
41876;DHT22;27555;50.808;4.402;2023-08-07T01:29:14;13.50;99.90
41876;DHT22;27555;50.808;4.402;2023-08-07T01:31:41;13.30;99.90
41876;DHT22;27555;50.808;4.402;2023-08-07T01:34:08;13.40;99.90
41876;DHT22;27555;50.808;4.402;2023-08-07T01:36:38;13.30;99.90
41876;DHT22;27555;50.808;4.402;2023-08-07T01:39:05;13.20;99.90
41876;DHT22;27555;50.808;4.402;2023-08-07T01:41:32;13.20;99.90
41876;DHT22;27555;50.808;4.402;2023-08-07T01:43:59;13.30;99.90
41876;DHT22;27555;50.808;4.402;2023-08-07T01:46:25;13.30;99.90
41876;DHT22;27555;50.808;4.402;2023-08-07T01:48:50;13.10;99.90
41876;DHT22;27555;50.808;4.402;2023-08-07T01:51:16;13.20;99.90
41876;DHT22;27555;50.808;4.402;2023-08-07T01:53:41;13.20;99.90
41876;DHT22;27555;50.808;4.402;2023-08-07T01:56:07;13.30;99.90
41876;DHT22;27555;50.808;4.402;2023-08-07T01:58:33;13.20;99.90
41876;DHT22;27555;50.808;4.402;2023-08-07T02:00:58;13.20;99.90
41876;DHT22;27555;50.808;4.402;2023-08-07T02:03:24;13.20;99.90
41876;DHT22;27555;50.808;4.402;2023-08-07T02:05:49;13.10;99.90
41876;DHT22;27555;50.808;4.402;2023-08-07T02:08:15;13.10;99.90
41876;DHT22;27555;50.808;4.402;2023-08-07T02:10:41;13.00;99.90
41876;DHT22;27555;50.808;4.402;2023-08-07T02:13:06;13.00;99.90
41876;DHT22;27555;50.808;4.402;2023-08-07T02:15:32;13.10;99.90
41876;DHT22;27555;50.808;4.402;2023-08-07T02:17:59;13.10;99.90
41876;DHT22;27555;50.808;4.402;2023-08-07T02:20:24;13.10;99.90
41876;DHT22;27555;50.808;4.402;2023-08-07T02:22:50;13.10;99.90
41876;DHT22;27555;50.808;4.402;2023-08-07T02:25:16;13.10;99.90
41876;DHT22;27555;50.808;4.402;2023-08-07T02:27:41;13.10;99.90
41876;DHT22;27555;50.808;4.402;2023-08-07T02:30:07;13.20;99.90
41876;DHT22;27555;50.808;4.402;2023-08-07T02:32:33;13.10;99.90
41876;DHT22;27555;50.808;4.402;2023-08-07T02:34:59;13.10;99.90
41876;DHT22;27555;50.808;4.402;2023-08-07T02:37:24;13.00;99.90
41876;DHT22;27555;50.808;4.402;2023-08-07T02:39:50;13.00;99.90
41876;DHT22;27555;50.808;4.402;2023-08-07T02:42:16;13.10;99.90
41876;DHT22;27555;50.808;4.402;2023-08-07T02:44:41;13.10;99.90
41876;DHT22;27555;50.808;4.402;2023-08-07T02:47:07;12.80;99.90
41876;DHT22;27555;50.808;4.402;2023-08-07T02:49:32;12.90;99.90
41876;DHT22;27555;50.808;4.402;2023-08-07T02:51:58;13.00;99.90
41876;DHT22;27555;50.808;4.402;2023-08-07T02:54:24;13.00;99.90
41876;DHT22;27555;50.808;4.402;2023-08-07T02:56:49;13.00;99.90
41876;DHT22;27555;50.808;4.402;2023-08-07T02:59:15;12.90;99.90
41876;DHT22;27555;50.808;4.402;2023-08-07T03:01:42;13.00;99.90
41876;DHT22;27555;50.808;4.402;2023-08-07T03:04:08;13.00;99.90
41876;DHT22;27555;50.808;4.402;2023-08-07T03:06:34;13.10;99.90
41876;DHT22;27555;50.808;4.402;2023-08-07T03:08:59;13.10;99.90
41876;DHT22;27555;50.808;4.402;2023-08-07T03:11:25;13.10;99.90
41876;DHT22;27555;50.808;4.402;2023-08-07T03:13:51;13.00;99.90
41876;DHT22;27555;50.808;4.402;2023-08-07T03:16:16;12.90;99.90
41876;DHT22;27555;50.808;4.402;2023-08-07T03:18:42;12.90;99.90
41876;DHT22;27555;50.808;4.402;2023-08-07T03:21:08;12.90;99.90
41876;DHT22;27555;50.808;4.402;2023-08-07T03:23:33;12.90;99.90
41876;DHT22;27555;50.808;4.402;2023-08-07T03:26:06;12.90;99.90
41876;DHT22;27555;50.808;4.402;2023-08-07T03:28:33;12.90;99.90
41876;DHT22;27555;50.808;4.402;2023-08-07T03:30:59;12.90;99.90
41876;DHT22;27555;50.808;4.402;2023-08-07T03:33:24;13.00;99.90
41876;DHT22;27555;50.808;4.402;2023-08-07T03:35:50;13.00;99.90
41876;DHT22;27555;50.808;4.402;2023-08-07T03:38:16;12.90;99.90
41876;DHT22;27555;50.808;4.402;2023-08-07T03:40:42;12.90;99.90
41876;DHT22;27555;50.808;4.402;2023-08-07T03:43:07;12.80;99.90
41876;DHT22;27555;50.808;4.402;2023-08-07T03:45:33;12.80;99.90
41876;DHT22;27555;50.808;4.402;2023-08-07T03:47:58;12.80;99.90
41876;DHT22;27555;50.808;4.402;2023-08-07T03:50:24;12.90;99.90
41876;DHT22;27555;50.808;4.402;2023-08-07T03:52:50;12.90;99.90
41876;DHT22;27555;50.808;4.402;2023-08-07T03:55:15;12.80;99.90
41876;DHT22;27555;50.808;4.402;2023-08-07T03:57:41;12.70;99.90
41876;DHT22;27555;50.808;4.402;2023-08-07T04:00:07;12.80;99.90
41876;DHT22;27555;50.808;4.402;2023-08-07T04:02:33;12.90;99.90
41876;DHT22;27555;50.808;4.402;2023-08-07T04:04:59;13.00;99.90
41876;DHT22;27555;50.808;4.402;2023-08-07T04:07:24;12.90;99.90
41876;DHT22;27555;50.808;4.402;2023-08-07T04:09:50;12.90;99.90
41876;DHT22;27555;50.808;4.402;2023-08-07T04:12:15;12.90;99.90
41876;DHT22;27555;50.808;4.402;2023-08-07T04:14:41;12.80;99.90
41876;DHT22;27555;50.808;4.402;2023-08-07T04:17:07;12.90;99.90
41876;DHT22;27555;50.808;4.402;2023-08-07T04:19:32;13.00;99.90
41876;DHT22;27555;50.808;4.402;2023-08-07T04:21:58;12.90;99.90
41876;DHT22;27555;50.808;4.402;2023-08-07T04:24:24;12.70;99.90
41876;DHT22;27555;50.808;4.402;2023-08-07T04:26:49;12.70;99.90
41876;DHT22;27555;50.808;4.402;2023-08-07T04:29:15;12.70;99.90
41876;DHT22;27555;50.808;4.402;2023-08-07T04:31:40;12.60;99.90
41876;DHT22;27555;50.808;4.402;2023-08-07T04:34:06;12.80;99.90
41876;DHT22;27555;50.808;4.402;2023-08-07T04:36:32;12.80;99.90
41876;DHT22;27555;50.808;4.402;2023-08-07T04:38:58;12.80;99.90
41876;DHT22;27555;50.808;4.402;2023-08-07T04:41:24;12.90;99.90
41876;DHT22;27555;50.808;4.402;2023-08-07T04:43:49;13.00;99.90
41876;DHT22;27555;50.808;4.402;2023-08-07T04:46:15;12.90;99.90
41876;DHT22;27555;50.808;4.402;2023-08-07T04:48:41;12.90;99.90
41876;DHT22;27555;50.808;4.402;2023-08-07T04:51:07;12.80;99.90
41876;DHT22;27555;50.808;4.402;2023-08-07T04:53:33;12.90;99.90
41876;DHT22;27555;50.808;4.402;2023-08-07T04:56:02;12.90;99.90
41876;DHT22;27555;50.808;4.402;2023-08-07T04:58:28;12.90;99.90
41876;DHT22;27555;50.808;4.402;2023-08-07T05:00:57;13.00;99.90
41876;DHT22;27555;50.808;4.402;2023-08-07T05:03:23;12.90;99.90
41876;DHT22;27555;50.808;4.402;2023-08-07T05:05:49;13.00;99.90
41876;DHT22;27555;50.808;4.402;2023-08-07T05:08:15;13.10;99.90
41876;DHT22;27555;50.808;4.402;2023-08-07T05:10:41;13.10;99.90
41876;DHT22;27555;50.808;4.402;2023-08-07T05:13:07;13.10;99.90
41876;DHT22;27555;50.808;4.402;2023-08-07T05:15:32;13.20;99.90
41876;DHT22;27555;50.808;4.402;2023-08-07T05:17:58;13.20;99.90
41876;DHT22;27555;50.808;4.402;2023-08-07T05:20:24;13.30;99.90
41876;DHT22;27555;50.808;4.402;2023-08-07T05:22:49;13.40;99.90
41876;DHT22;27555;50.808;4.402;2023-08-07T05:25:16;13.30;99.90
41876;DHT22;27555;50.808;4.402;2023-08-07T05:27:42;13.40;99.90
41876;DHT22;27555;50.808;4.402;2023-08-07T05:30:08;13.40;99.90
41876;DHT22;27555;50.808;4.402;2023-08-07T05:32:35;13.40;99.90
41876;DHT22;27555;50.808;4.402;2023-08-07T05:35:07;13.50;99.90
41876;DHT22;27555;50.808;4.402;2023-08-07T05:37:33;13.60;99.90
41876;DHT22;27555;50.808;4.402;2023-08-07T05:39:59;13.80;99.90
41876;DHT22;27555;50.808;4.402;2023-08-07T05:42:25;13.80;99.90
41876;DHT22;27555;50.808;4.402;2023-08-07T05:44:50;13.90;99.90
41876;DHT22;27555;50.808;4.402;2023-08-07T05:47:16;13.90;99.90
41876;DHT22;27555;50.808;4.402;2023-08-07T05:49:41;13.90;99.90
41876;DHT22;27555;50.808;4.402;2023-08-07T05:52:07;14.10;99.90
41876;DHT22;27555;50.808;4.402;2023-08-07T05:54:33;13.90;99.90
41876;DHT22;27555;50.808;4.402;2023-08-07T05:56:59;13.90;99.90
41876;DHT22;27555;50.808;4.402;2023-08-07T05:59:25;13.90;99.90
41876;DHT22;27555;50.808;4.402;2023-08-07T06:01:51;13.80;99.90
41876;DHT22;27555;50.808;4.402;2023-08-07T06:04:17;14.10;99.90
41876;DHT22;27555;50.808;4.402;2023-08-07T06:06:43;14.20;99.90
41876;DHT22;27555;50.808;4.402;2023-08-07T06:09:12;14.40;99.90
41876;DHT22;27555;50.808;4.402;2023-08-07T06:11:38;14.30;99.90
41876;DHT22;27555;50.808;4.402;2023-08-07T06:14:03;14.30;99.90
41876;DHT22;27555;50.808;4.402;2023-08-07T06:16:29;14.30;99.90
41876;DHT22;27555;50.808;4.402;2023-08-07T06:18:55;14.50;99.90
41876;DHT22;27555;50.808;4.402;2023-08-07T06:21:20;14.70;99.90
41876;DHT22;27555;50.808;4.402;2023-08-07T06:23:47;14.90;99.90
41876;DHT22;27555;50.808;4.402;2023-08-07T06:26:13;14.90;99.90
41876;DHT22;27555;50.808;4.402;2023-08-07T06:28:39;15.00;99.90
41876;DHT22;27555;50.808;4.402;2023-08-07T06:31:09;14.90;99.90
41876;DHT22;27555;50.808;4.402;2023-08-07T06:33:35;14.90;99.90
41876;DHT22;27555;50.808;4.402;2023-08-07T06:36:03;15.30;99.90
41876;DHT22;27555;50.808;4.402;2023-08-07T06:38:29;15.40;99.90
41876;DHT22;27555;50.808;4.402;2023-08-07T06:40:55;15.40;99.90
41876;DHT22;27555;50.808;4.402;2023-08-07T06:43:21;15.30;99.90
41876;DHT22;27555;50.808;4.402;2023-08-07T06:45:49;15.30;99.90
41876;DHT22;27555;50.808;4.402;2023-08-07T06:48:15;15.30;99.90
41876;DHT22;27555;50.808;4.402;2023-08-07T06:50:41;15.30;99.90
41876;DHT22;27555;50.808;4.402;2023-08-07T06:53:06;15.70;99.90
41876;DHT22;27555;50.808;4.402;2023-08-07T06:55:32;15.70;99.90
41876;DHT22;27555;50.808;4.402;2023-08-07T06:57:59;15.70;99.90
41876;DHT22;27555;50.808;4.402;2023-08-07T07:00:24;16.00;99.90
41876;DHT22;27555;50.808;4.402;2023-08-07T07:02:50;16.00;99.90
41876;DHT22;27555;50.808;4.402;2023-08-07T07:05:16;15.90;99.90
41876;DHT22;27555;50.808;4.402;2023-08-07T07:07:41;16.00;99.90
41876;DHT22;27555;50.808;4.402;2023-08-07T07:10:07;16.10;99.90
41876;DHT22;27555;50.808;4.402;2023-08-07T07:12:33;16.10;99.90
41876;DHT22;27555;50.808;4.402;2023-08-07T07:14:59;16.30;99.90
41876;DHT22;27555;50.808;4.402;2023-08-07T07:17:24;16.60;99.90
41876;DHT22;27555;50.808;4.402;2023-08-07T07:19:50;16.20;99.90
41876;DHT22;27555;50.808;4.402;2023-08-07T07:22:16;16.50;99.90
41876;DHT22;27555;50.808;4.402;2023-08-07T07:24:41;16.40;99.90
41876;DHT22;27555;50.808;4.402;2023-08-07T07:27:07;16.50;99.90
41876;DHT22;27555;50.808;4.402;2023-08-07T07:29:32;16.20;99.90
41876;DHT22;27555;50.808;4.402;2023-08-07T07:31:59;16.20;99.90
41876;DHT22;27555;50.808;4.402;2023-08-07T07:34:24;16.40;99.90
41876;DHT22;27555;50.808;4.402;2023-08-07T07:36:50;16.50;99.90
41876;DHT22;27555;50.808;4.402;2023-08-07T07:39:18;16.90;99.90
41876;DHT22;27555;50.808;4.402;2023-08-07T07:41:43;18.10;99.90
41876;DHT22;27555;50.808;4.402;2023-08-07T07:44:11;18.80;99.90
41876;DHT22;27555;50.808;4.402;2023-08-07T07:46:37;20.30;99.90
41876;DHT22;27555;50.808;4.402;2023-08-07T07:49:02;21.30;99.90
41876;DHT22;27555;50.808;4.402;2023-08-07T07:51:30;22.40;99.90
41876;DHT22;27555;50.808;4.402;2023-08-07T07:53:57;22.70;99.90
41876;DHT22;27555;50.808;4.402;2023-08-07T07:56:23;23.70;98.90
41876;DHT22;27555;50.808;4.402;2023-08-07T07:58:49;22.40;99.00
41876;DHT22;27555;50.808;4.402;2023-08-07T08:01:14;21.60;99.90
41876;DHT22;27555;50.808;4.402;2023-08-07T08:03:40;22.20;99.30
41876;DHT22;27555;50.808;4.402;2023-08-07T08:06:06;21.80;99.60
41876;DHT22;27555;50.808;4.402;2023-08-07T08:08:31;21.70;98.80
41876;DHT22;27555;50.808;4.402;2023-08-07T08:10:57;21.10;99.90
41876;DHT22;27555;50.808;4.402;2023-08-07T08:13:23;21.90;99.20
41876;DHT22;27555;50.808;4.402;2023-08-07T08:15:50;22.80;97.80
41876;DHT22;27555;50.808;4.402;2023-08-07T08:18:16;23.20;96.80
41876;DHT22;27555;50.808;4.402;2023-08-07T08:20:42;23.20;96.40
41876;DHT22;27555;50.808;4.402;2023-08-07T08:23:07;22.30;97.10
41876;DHT22;27555;50.808;4.402;2023-08-07T08:25:33;23.00;96.80
41876;DHT22;27555;50.808;4.402;2023-08-07T08:27:59;24.10;95.60
41876;DHT22;27555;50.808;4.402;2023-08-07T08:30:28;24.30;95.00
41876;DHT22;27555;50.808;4.402;2023-08-07T08:32:54;23.70;95.00
41876;DHT22;27555;50.808;4.402;2023-08-07T08:35:19;23.40;95.20
41876;DHT22;27555;50.808;4.402;2023-08-07T08:37:46;22.20;95.40
41876;DHT22;27555;50.808;4.402;2023-08-07T08:40:11;23.00;95.20
41876;DHT22;27555;50.808;4.402;2023-08-07T08:42:39;23.90;94.70
41876;DHT22;27555;50.808;4.402;2023-08-07T08:45:08;23.30;95.00
41876;DHT22;27555;50.808;4.402;2023-08-07T08:47:35;22.80;95.20
41876;DHT22;27555;50.808;4.402;2023-08-07T08:50:06;22.00;95.40
41876;DHT22;27555;50.808;4.402;2023-08-07T08:52:32;23.00;94.90
41876;DHT22;27555;50.808;4.402;2023-08-07T08:54:58;24.40;93.90
41876;DHT22;27555;50.808;4.402;2023-08-07T08:57:25;25.40;92.70
41876;DHT22;27555;50.808;4.402;2023-08-07T08:59:55;24.80;92.90
41876;DHT22;27555;50.808;4.402;2023-08-07T09:02:22;24.40;93.20
41876;DHT22;27555;50.808;4.402;2023-08-07T09:04:48;23.50;93.80
41876;DHT22;27555;50.808;4.402;2023-08-07T09:07:15;24.90;93.50
41876;DHT22;27555;50.808;4.402;2023-08-07T09:09:45;25.50;92.00
41876;DHT22;27555;50.808;4.402;2023-08-07T09:12:19;24.60;92.70
41876;DHT22;27555;50.808;4.402;2023-08-07T09:14:49;23.30;93.80
41876;DHT22;27555;50.808;4.402;2023-08-07T09:17:18;22.80;94.20
41876;DHT22;27555;50.808;4.402;2023-08-07T09:19:44;22.10;95.00
41876;DHT22;27555;50.808;4.402;2023-08-07T09:22:11;22.40;95.00
41876;DHT22;27555;50.808;4.402;2023-08-07T09:24:36;23.00;94.40
41876;DHT22;27555;50.808;4.402;2023-08-07T09:27:02;23.60;94.10
41876;DHT22;27555;50.808;4.402;2023-08-07T09:29:28;23.50;94.30
41876;DHT22;27555;50.808;4.402;2023-08-07T09:31:56;24.20;93.50
41876;DHT22;27555;50.808;4.402;2023-08-07T09:34:22;23.30;93.80
41876;DHT22;27555;50.808;4.402;2023-08-07T09:36:48;22.90;94.00
41876;DHT22;27555;50.808;4.402;2023-08-07T09:39:14;22.70;94.40
41876;DHT22;27555;50.808;4.402;2023-08-07T09:41:40;22.30;95.10
41876;DHT22;27555;50.808;4.402;2023-08-07T09:44:09;22.00;95.10
41876;DHT22;27555;50.808;4.402;2023-08-07T09:46:42;21.70;95.00
41876;DHT22;27555;50.808;4.402;2023-08-07T09:49:10;21.40;95.10
41876;DHT22;27555;50.808;4.402;2023-08-07T09:51:46;21.40;95.50
41876;DHT22;27555;50.808;4.402;2023-08-07T09:54:12;22.80;94.70
41876;DHT22;27555;50.808;4.402;2023-08-07T09:56:41;23.20;94.20
41876;DHT22;27555;50.808;4.402;2023-08-07T09:59:08;22.60;94.60
41876;DHT22;27555;50.808;4.402;2023-08-07T10:01:36;21.80;95.30
41876;DHT22;27555;50.808;4.402;2023-08-07T10:04:04;22.50;95.40
41876;DHT22;27555;50.808;4.402;2023-08-07T10:06:30;24.30;93.80
41876;DHT22;27555;50.808;4.402;2023-08-07T10:08:56;26.20;92.60
41876;DHT22;27555;50.808;4.402;2023-08-07T10:11:23;27.50;91.10
41876;DHT22;27555;50.808;4.402;2023-08-07T10:13:50;28.30;89.20
41876;DHT22;27555;50.808;4.402;2023-08-07T10:16:15;28.70;88.30
41876;DHT22;27555;50.808;4.402;2023-08-07T10:18:41;29.20;85.50
41876;DHT22;27555;50.808;4.402;2023-08-07T10:21:07;29.00;85.50
41876;DHT22;27555;50.808;4.402;2023-08-07T10:23:36;29.40;85.20
41876;DHT22;27555;50.808;4.402;2023-08-07T10:26:06;28.40;85.20
41876;DHT22;27555;50.808;4.402;2023-08-07T10:28:36;26.40;87.50
41876;DHT22;27555;50.808;4.402;2023-08-07T10:31:06;25.40;89.30
41876;DHT22;27555;50.808;4.402;2023-08-07T10:33:33;24.50;90.50
41876;DHT22;27555;50.808;4.402;2023-08-07T10:35:59;24.50;90.60
41876;DHT22;27555;50.808;4.402;2023-08-07T10:38:25;23.80;90.80
41876;DHT22;27555;50.808;4.402;2023-08-07T10:46:14;26.60;88.70
41876;DHT22;27555;50.808;4.402;2023-08-07T10:51:05;27.60;85.50
41876;DHT22;27555;50.808;4.402;2023-08-07T10:53:35;28.30;84.70
41876;DHT22;27555;50.808;4.402;2023-08-07T10:56:08;28.30;85.10
41876;DHT22;27555;50.808;4.402;2023-08-07T10:58:38;27.30;85.00
41876;DHT22;27555;50.808;4.402;2023-08-07T11:04:08;23.80;90.20
41876;DHT22;27555;50.808;4.402;2023-08-07T11:06:36;23.30;91.10
41876;DHT22;27555;50.808;4.402;2023-08-07T11:09:05;23.10;91.90
41876;DHT22;27555;50.808;4.402;2023-08-07T11:11:48;24.00;91.80
41876;DHT22;27555;50.808;4.402;2023-08-07T11:14:19;26.00;90.30
41876;DHT22;27555;50.808;4.402;2023-08-07T11:16:45;26.90;88.70
41876;DHT22;27555;50.808;4.402;2023-08-07T11:19:13;27.60;87.40
41876;DHT22;27555;50.808;4.402;2023-08-07T11:21:40;28.20;86.30
41876;DHT22;27555;50.808;4.402;2023-08-07T11:24:08;28.70;84.80
41876;DHT22;27555;50.808;4.402;2023-08-07T11:26:34;28.00;84.40
41876;DHT22;27555;50.808;4.402;2023-08-07T11:28:59;26.40;86.60
41876;DHT22;27555;50.808;4.402;2023-08-07T11:31:25;25.00;89.40
41876;DHT22;27555;50.808;4.402;2023-08-07T11:33:57;25.00;89.40
41876;DHT22;27555;50.808;4.402;2023-08-07T11:36:23;25.40;89.80
41876;DHT22;27555;50.808;4.402;2023-08-07T11:38:49;26.00;88.50
41876;DHT22;27555;50.808;4.402;2023-08-07T11:41:16;25.00;88.30
41876;DHT22;27555;50.808;4.402;2023-08-07T11:43:42;23.80;90.20
41876;DHT22;27555;50.808;4.402;2023-08-07T11:46:10;23.70;90.70
41876;DHT22;27555;50.808;4.402;2023-08-07T11:48:40;23.30;91.20
41876;DHT22;27555;50.808;4.402;2023-08-07T11:51:06;24.00;91.10
41876;DHT22;27555;50.808;4.402;2023-08-07T11:53:34;24.30;91.40
41876;DHT22;27555;50.808;4.402;2023-08-07T11:56:05;24.20;91.20
41876;DHT22;27555;50.808;4.402;2023-08-07T11:58:35;25.00;90.70
41876;DHT22;27555;50.808;4.402;2023-08-07T12:01:05;26.20;89.50
41876;DHT22;27555;50.808;4.402;2023-08-07T12:03:33;27.30;86.90
41876;DHT22;27555;50.808;4.402;2023-08-07T12:06:02;27.50;87.00
41876;DHT22;27555;50.808;4.402;2023-08-07T12:08:40;27.70;86.20
41876;DHT22;27555;50.808;4.402;2023-08-07T12:11:08;26.20;88.30
41876;DHT22;27555;50.808;4.402;2023-08-07T12:13:43;25.40;88.40
41876;DHT22;27555;50.808;4.402;2023-08-07T12:16:11;24.70;89.60
41876;DHT22;27555;50.808;4.402;2023-08-07T12:18:46;24.30;90.20
41876;DHT22;27555;50.808;4.402;2023-08-07T12:21:17;24.70;90.30
41876;DHT22;27555;50.808;4.402;2023-08-07T12:23:44;25.20;90.00
41876;DHT22;27555;50.808;4.402;2023-08-07T12:26:13;24.60;90.00
41876;DHT22;27555;50.808;4.402;2023-08-07T12:28:38;24.20;90.50
41876;DHT22;27555;50.808;4.402;2023-08-07T12:31:04;23.90;90.20
41876;DHT22;27555;50.808;4.402;2023-08-07T12:33:30;23.50;90.60
41876;DHT22;27555;50.808;4.402;2023-08-07T12:35:57;23.10;91.20
41876;DHT22;27555;50.808;4.402;2023-08-07T12:38:22;22.60;91.60
41876;DHT22;27555;50.808;4.402;2023-08-07T12:40:49;22.40;92.20
41876;DHT22;27555;50.808;4.402;2023-08-07T12:43:15;22.40;92.00
41876;DHT22;27555;50.808;4.402;2023-08-07T12:45:40;22.70;92.00
41876;DHT22;27555;50.808;4.402;2023-08-07T12:48:06;23.00;91.80
41876;DHT22;27555;50.808;4.402;2023-08-07T12:50:32;22.70;92.50
41876;DHT22;27555;50.808;4.402;2023-08-07T12:52:58;23.10;92.20
41876;DHT22;27555;50.808;4.402;2023-08-07T12:55:24;23.50;91.90
41876;DHT22;27555;50.808;4.402;2023-08-07T12:57:49;23.30;91.90
41876;DHT22;27555;50.808;4.402;2023-08-07T13:00:16;22.90;92.20
41876;DHT22;27555;50.808;4.402;2023-08-07T13:02:44;22.90;92.20
41876;DHT22;27555;50.808;4.402;2023-08-07T13:05:10;22.60;92.20
41876;DHT22;27555;50.808;4.402;2023-08-07T13:07:36;21.90;92.80
41876;DHT22;27555;50.808;4.402;2023-08-07T13:10:04;22.20;93.00
41876;DHT22;27555;50.808;4.402;2023-08-07T13:12:30;22.60;92.60
41876;DHT22;27555;50.808;4.402;2023-08-07T13:14:59;22.80;92.50
41876;DHT22;27555;50.808;4.402;2023-08-07T13:17:25;22.90;92.50
41876;DHT22;27555;50.808;4.402;2023-08-07T13:19:51;22.70;92.40
41876;DHT22;27555;50.808;4.402;2023-08-07T13:22:16;22.70;92.50
41876;DHT22;27555;50.808;4.402;2023-08-07T13:24:43;22.70;92.80
41876;DHT22;27555;50.808;4.402;2023-08-07T13:27:09;22.90;92.80
41876;DHT22;27555;50.808;4.402;2023-08-07T13:29:35;23.10;92.50
41876;DHT22;27555;50.808;4.402;2023-08-07T13:32:01;23.20;92.40
41876;DHT22;27555;50.808;4.402;2023-08-07T13:34:29;23.40;91.50
41876;DHT22;27555;50.808;4.402;2023-08-07T13:36:54;23.20;91.40
41876;DHT22;27555;50.808;4.402;2023-08-07T13:39:20;22.80;92.00
41876;DHT22;27555;50.808;4.402;2023-08-07T13:41:46;22.60;92.00
41876;DHT22;27555;50.808;4.402;2023-08-07T13:44:12;22.50;92.20
41876;DHT22;27555;50.808;4.402;2023-08-07T13:46:38;22.20;92.60
41876;DHT22;27555;50.808;4.402;2023-08-07T13:49:03;22.70;92.50
41876;DHT22;27555;50.808;4.402;2023-08-07T13:51:29;23.00;92.10
41876;DHT22;27555;50.808;4.402;2023-08-07T13:53:55;22.60;92.70
41876;DHT22;27555;50.808;4.402;2023-08-07T13:56:20;22.40;93.20
41876;DHT22;27555;50.808;4.402;2023-08-07T13:58:46;22.60;92.60
41876;DHT22;27555;50.808;4.402;2023-08-07T14:01:12;22.60;92.80
41876;DHT22;27555;50.808;4.402;2023-08-07T14:03:37;22.40;92.90
41876;DHT22;27555;50.808;4.402;2023-08-07T14:06:03;22.20;93.10
41876;DHT22;27555;50.808;4.402;2023-08-07T14:08:29;21.90;93.20
41876;DHT22;27555;50.808;4.402;2023-08-07T14:10:54;22.20;93.00
41876;DHT22;27555;50.808;4.402;2023-08-07T14:13:20;22.40;92.80
41876;DHT22;27555;50.808;4.402;2023-08-07T14:15:46;22.30;93.00
41876;DHT22;27555;50.808;4.402;2023-08-07T14:18:12;22.50;92.30
41876;DHT22;27555;50.808;4.402;2023-08-07T14:20:40;22.40;92.70
41876;DHT22;27555;50.808;4.402;2023-08-07T14:23:05;22.50;92.10
41876;DHT22;27555;50.808;4.402;2023-08-07T14:25:31;22.40;92.10
41876;DHT22;27555;50.808;4.402;2023-08-07T14:27:57;22.20;92.30
41876;DHT22;27555;50.808;4.402;2023-08-07T14:30:22;22.40;92.00
41876;DHT22;27555;50.808;4.402;2023-08-07T14:32:48;22.40;92.20
41876;DHT22;27555;50.808;4.402;2023-08-07T14:35:14;22.60;92.30
41876;DHT22;27555;50.808;4.402;2023-08-07T14:37:40;22.70;92.50
41876;DHT22;27555;50.808;4.402;2023-08-07T14:40:07;22.70;92.40
41876;DHT22;27555;50.808;4.402;2023-08-07T14:42:33;22.60;92.30
41876;DHT22;27555;50.808;4.402;2023-08-07T14:44:58;22.50;91.90
41876;DHT22;27555;50.808;4.402;2023-08-07T14:47:25;22.00;91.80
41876;DHT22;27555;50.808;4.402;2023-08-07T14:49:51;22.20;92.00
41876;DHT22;27555;50.808;4.402;2023-08-07T14:52:16;22.40;92.20
41876;DHT22;27555;50.808;4.402;2023-08-07T14:54:42;22.20;92.60
41876;DHT22;27555;50.808;4.402;2023-08-07T14:57:08;22.50;92.60
41876;DHT22;27555;50.808;4.402;2023-08-07T14:59:34;22.50;92.50
41876;DHT22;27555;50.808;4.402;2023-08-07T15:02:00;22.50;92.60
41876;DHT22;27555;50.808;4.402;2023-08-07T15:04:25;22.60;92.70
41876;DHT22;27555;50.808;4.402;2023-08-07T15:06:51;22.30;92.80
41876;DHT22;27555;50.808;4.402;2023-08-07T15:09:17;22.10;93.10
41876;DHT22;27555;50.808;4.402;2023-08-07T15:11:45;22.10;92.90
41876;DHT22;27555;50.808;4.402;2023-08-07T15:14:11;22.20;93.00
41876;DHT22;27555;50.808;4.402;2023-08-07T15:16:36;22.20;92.70
41876;DHT22;27555;50.808;4.402;2023-08-07T15:19:02;22.10;92.80
41876;DHT22;27555;50.808;4.402;2023-08-07T15:21:29;22.20;92.50
41876;DHT22;27555;50.808;4.402;2023-08-07T15:23:55;22.30;92.50
41876;DHT22;27555;50.808;4.402;2023-08-07T15:26:21;22.30;92.70
41876;DHT22;27555;50.808;4.402;2023-08-07T15:28:46;22.10;92.70
41876;DHT22;27555;50.808;4.402;2023-08-07T15:31:12;22.00;92.40
41876;DHT22;27555;50.808;4.402;2023-08-07T15:33:38;21.80;92.80
41876;DHT22;27555;50.808;4.402;2023-08-07T15:36:03;22.00;92.90
41876;DHT22;27555;50.808;4.402;2023-08-07T15:38:30;22.00;93.10
41876;DHT22;27555;50.808;4.402;2023-08-07T15:40:56;22.10;92.90